sensor_id;sensor_type;location;lat;lon;timestamp;P1;durP1;ratioP1;P2;durP2;ratioP2
20792;SDS011;10556;-33.662;151.094;2023-11-25T00:00:26;4.73;;;1.87;;
20792;SDS011;10556;-33.662;151.094;2023-11-25T00:05:29;4.33;;;2.13;;
20792;SDS011;10556;-33.662;151.094;2023-11-25T00:10:33;4.20;;;2.20;;
20792;SDS011;10556;-33.662;151.094;2023-11-25T00:15:36;3.20;;;2.07;;
20792;SDS011;10556;-33.662;151.094;2023-11-25T00:20:38;5.00;;;1.83;;
20792;SDS011;10556;-33.662;151.094;2023-11-25T00:25:43;1.60;;;1.50;;
20792;SDS011;10556;-33.662;151.094;2023-11-25T00:30:45;2.20;;;1.93;;
20792;SDS011;10556;-33.662;151.094;2023-11-25T00:35:48;2.77;;;1.90;;
20792;SDS011;10556;-33.662;151.094;2023-11-25T00:40:52;1.50;;;1.30;;
20792;SDS011;10556;-33.662;151.094;2023-11-25T00:45:54;2.03;;;1.63;;
20792;SDS011;10556;-33.662;151.094;2023-11-25T00:50:57;2.73;;;1.50;;
20792;SDS011;10556;-33.662;151.094;2023-11-25T00:56:01;1.60;;;1.50;;
20792;SDS011;10556;-33.662;151.094;2023-11-25T01:01:04;5.87;;;1.80;;
20792;SDS011;10556;-33.662;151.094;2023-11-25T01:06:06;3.03;;;2.03;;
20792;SDS011;10556;-33.662;151.094;2023-11-25T01:11:11;3.40;;;1.80;;
20792;SDS011;10556;-33.662;151.094;2023-11-25T01:16:16;3.10;;;1.70;;
20792;SDS011;10556;-33.662;151.094;2023-11-25T01:21:19;2.73;;;2.27;;
20792;SDS011;10556;-33.662;151.094;2023-11-25T01:26:23;4.33;;;2.40;;
20792;SDS011;10556;-33.662;151.094;2023-11-25T01:31:25;3.77;;;1.93;;
20792;SDS011;10556;-33.662;151.094;2023-11-25T01:36:28;4.33;;;2.23;;
20792;SDS011;10556;-33.662;151.094;2023-11-25T01:41:32;4.63;;;2.20;;
20792;SDS011;10556;-33.662;151.094;2023-11-25T01:46:35;3.77;;;2.00;;
20792;SDS011;10556;-33.662;151.094;2023-11-25T01:51:38;2.30;;;1.50;;
20792;SDS011;10556;-33.662;151.094;2023-11-25T01:56:48;2.60;;;1.80;;
20792;SDS011;10556;-33.662;151.094;2023-11-25T02:01:53;3.40;;;1.43;;
20792;SDS011;10556;-33.662;151.094;2023-11-25T02:06:57;4.10;;;1.37;;
20792;SDS011;10556;-33.662;151.094;2023-11-25T02:12:01;2.90;;;1.20;;
20792;SDS011;10556;-33.662;151.094;2023-11-25T02:17:04;2.67;;;1.43;;
20792;SDS011;10556;-33.662;151.094;2023-11-25T02:22:08;3.03;;;1.07;;
20792;SDS011;10556;-33.662;151.094;2023-11-25T02:27:12;1.70;;;1.20;;
20792;SDS011;10556;-33.662;151.094;2023-11-25T02:32:15;4.40;;;1.30;;
20792;SDS011;10556;-33.662;151.094;2023-11-25T02:37:17;2.93;;;1.20;;
20792;SDS011;10556;-33.662;151.094;2023-11-25T02:42:22;2.83;;;1.30;;
20792;SDS011;10556;-33.662;151.094;2023-11-25T02:47:24;2.07;;;1.00;;
20792;SDS011;10556;-33.662;151.094;2023-11-25T02:52:26;2.03;;;0.83;;
20792;SDS011;10556;-33.662;151.094;2023-11-25T02:57:31;2.07;;;1.23;;
20792;SDS011;10556;-33.662;151.094;2023-11-25T03:02:33;2.10;;;1.40;;
20792;SDS011;10556;-33.662;151.094;2023-11-25T03:07:36;0.97;;;0.97;;
20792;SDS011;10556;-33.662;151.094;2023-11-25T03:12:41;1.93;;;1.00;;
20792;SDS011;10556;-33.662;151.094;2023-11-25T03:17:44;0.87;;;0.87;;
20792;SDS011;10556;-33.662;151.094;2023-11-25T03:22:46;3.03;;;1.00;;
20792;SDS011;10556;-33.662;151.094;2023-11-25T03:27:51;1.67;;;0.87;;
20792;SDS011;10556;-33.662;151.094;2023-11-25T03:32:53;1.60;;;1.00;;
20792;SDS011;10556;-33.662;151.094;2023-11-25T03:37:56;1.37;;;0.97;;
20792;SDS011;10556;-33.662;151.094;2023-11-25T03:43:00;1.63;;;0.90;;
20792;SDS011;10556;-33.662;151.094;2023-11-25T03:48:02;1.57;;;1.00;;
20792;SDS011;10556;-33.662;151.094;2023-11-25T03:58:17;2.13;;;1.10;;
20792;SDS011;10556;-33.662;151.094;2023-11-25T04:03:20;2.30;;;1.33;;
20792;SDS011;10556;-33.662;151.094;2023-11-25T04:08:22;1.93;;;1.30;;
20792;SDS011;10556;-33.662;151.094;2023-11-25T04:13:26;4.27;;;1.00;;
20792;SDS011;10556;-33.662;151.094;2023-11-25T04:18:30;5.07;;;1.50;;
20792;SDS011;10556;-33.662;151.094;2023-11-25T04:23:32;1.60;;;1.37;;
20792;SDS011;10556;-33.662;151.094;2023-11-25T04:28:37;1.70;;;1.30;;
20792;SDS011;10556;-33.662;151.094;2023-11-25T04:33:39;1.43;;;1.33;;
20792;SDS011;10556;-33.662;151.094;2023-11-25T04:38:42;4.10;;;1.80;;
20792;SDS011;10556;-33.662;151.094;2023-11-25T04:43:46;3.40;;;2.07;;
20792;SDS011;10556;-33.662;151.094;2023-11-25T04:48:49;2.63;;;1.90;;
20792;SDS011;10556;-33.662;151.094;2023-11-25T04:53:51;4.37;;;1.33;;
20792;SDS011;10556;-33.662;151.094;2023-11-25T04:58:55;3.37;;;2.10;;
20792;SDS011;10556;-33.662;151.094;2023-11-25T05:03:58;1.80;;;1.30;;
20792;SDS011;10556;-33.662;151.094;2023-11-25T05:09:00;1.40;;;1.30;;
20792;SDS011;10556;-33.662;151.094;2023-11-25T05:14:05;1.87;;;1.63;;
20792;SDS011;10556;-33.662;151.094;2023-11-25T05:19:07;2.83;;;2.30;;
20792;SDS011;10556;-33.662;151.094;2023-11-25T05:24:09;2.50;;;2.30;;
20792;SDS011;10556;-33.662;151.094;2023-11-25T05:29:14;5.00;;;4.50;;
20792;SDS011;10556;-33.662;151.094;2023-11-25T05:34:16;4.13;;;3.73;;
20792;SDS011;10556;-33.662;151.094;2023-11-25T05:39:18;5.27;;;4.73;;
20792;SDS011;10556;-33.662;151.094;2023-11-25T05:44:23;5.80;;;5.30;;
20792;SDS011;10556;-33.662;151.094;2023-11-25T05:49:26;7.73;;;5.20;;
20792;SDS011;10556;-33.662;151.094;2023-11-25T05:54:29;7.17;;;5.30;;
20792;SDS011;10556;-33.662;151.094;2023-11-25T05:59:34;6.30;;;5.70;;
20792;SDS011;10556;-33.662;151.094;2023-11-25T06:04:37;5.43;;;4.93;;
20792;SDS011;10556;-33.662;151.094;2023-11-25T06:09:40;7.37;;;4.90;;
20792;SDS011;10556;-33.662;151.094;2023-11-25T06:14:45;4.97;;;4.57;;
20792;SDS011;10556;-33.662;151.094;2023-11-25T06:19:48;4.80;;;4.40;;
20792;SDS011;10556;-33.662;151.094;2023-11-25T06:24:51;4.50;;;4.10;;
20792;SDS011;10556;-33.662;151.094;2023-11-25T06:29:56;3.90;;;3.60;;
20792;SDS011;10556;-33.662;151.094;2023-11-25T06:34:58;3.33;;;3.13;;
20792;SDS011;10556;-33.662;151.094;2023-11-25T06:40:01;3.67;;;3.37;;
20792;SDS011;10556;-33.662;151.094;2023-11-25T06:45:06;3.77;;;3.47;;
20792;SDS011;10556;-33.662;151.094;2023-11-25T06:50:09;3.27;;;2.97;;
20792;SDS011;10556;-33.662;151.094;2023-11-25T06:55:12;3.40;;;3.10;;
20792;SDS011;10556;-33.662;151.094;2023-11-25T07:00:16;3.60;;;3.30;;
20792;SDS011;10556;-33.662;151.094;2023-11-25T07:05:19;3.87;;;3.57;;
20792;SDS011;10556;-33.662;151.094;2023-11-25T07:10:22;3.87;;;3.57;;
20792;SDS011;10556;-33.662;151.094;2023-11-25T07:15:26;6.00;;;3.83;;
20792;SDS011;10556;-33.662;151.094;2023-11-25T07:20:28;6.73;;;4.10;;
20792;SDS011;10556;-33.662;151.094;2023-11-25T07:25:31;6.23;;;4.60;;
20792;SDS011;10556;-33.662;151.094;2023-11-25T07:30:35;4.77;;;4.20;;
20792;SDS011;10556;-33.662;151.094;2023-11-25T07:35:37;4.50;;;4.10;;
20792;SDS011;10556;-33.662;151.094;2023-11-25T07:40:40;4.13;;;3.80;;
20792;SDS011;10556;-33.662;151.094;2023-11-25T07:45:44;4.93;;;4.40;;
20792;SDS011;10556;-33.662;151.094;2023-11-25T07:50:47;4.00;;;3.60;;
20792;SDS011;10556;-33.662;151.094;2023-11-25T07:55:50;6.13;;;4.00;;
20792;SDS011;10556;-33.662;151.094;2023-11-25T08:00:54;5.90;;;4.47;;
20792;SDS011;10556;-33.662;151.094;2023-11-25T08:05:57;4.70;;;4.30;;
20792;SDS011;10556;-33.662;151.094;2023-11-25T08:10:59;4.00;;;3.70;;
20792;SDS011;10556;-33.662;151.094;2023-11-25T08:16:04;6.67;;;4.33;;
20792;SDS011;10556;-33.662;151.094;2023-11-25T08:21:06;4.37;;;3.97;;
20792;SDS011;10556;-33.662;151.094;2023-11-25T08:26:16;4.67;;;4.03;;
20792;SDS011;10556;-33.662;151.094;2023-11-25T08:31:21;4.90;;;4.50;;
20792;SDS011;10556;-33.662;151.094;2023-11-25T08:36:24;4.70;;;4.10;;
20792;SDS011;10556;-33.662;151.094;2023-11-25T08:41:26;5.17;;;4.67;;
20792;SDS011;10556;-33.662;151.094;2023-11-25T08:46:30;4.60;;;4.20;;
20792;SDS011;10556;-33.662;151.094;2023-11-25T08:51:33;5.50;;;5.03;;
20792;SDS011;10556;-33.662;151.094;2023-11-25T08:56:35;4.57;;;4.17;;
20792;SDS011;10556;-33.662;151.094;2023-11-25T09:01:43;5.43;;;4.93;;
20792;SDS011;10556;-33.662;151.094;2023-11-25T09:06:46;6.20;;;5.40;;
20792;SDS011;10556;-33.662;151.094;2023-11-25T09:11:48;6.57;;;5.90;;
20792;SDS011;10556;-33.662;151.094;2023-11-25T09:16:53;5.73;;;5.23;;
20792;SDS011;10556;-33.662;151.094;2023-11-25T09:21:55;5.87;;;5.37;;
20792;SDS011;10556;-33.662;151.094;2023-11-25T09:26:57;9.10;;;6.67;;
20792;SDS011;10556;-33.662;151.094;2023-11-25T09:32:02;5.13;;;4.63;;
20792;SDS011;10556;-33.662;151.094;2023-11-25T09:37:04;6.47;;;5.50;;
20792;SDS011;10556;-33.662;151.094;2023-11-25T09:42:07;7.00;;;6.30;;
20792;SDS011;10556;-33.662;151.094;2023-11-25T09:47:11;10.37;;;7.40;;
20792;SDS011;10556;-33.662;151.094;2023-11-25T09:52:14;6.37;;;5.73;;
20792;SDS011;10556;-33.662;151.094;2023-11-25T09:57:20;8.47;;;6.73;;
20792;SDS011;10556;-33.662;151.094;2023-11-25T10:02:26;7.20;;;6.50;;
20792;SDS011;10556;-33.662;151.094;2023-11-25T10:07:31;6.20;;;5.33;;
20792;SDS011;10556;-33.662;151.094;2023-11-25T10:12:33;7.63;;;6.83;;
20792;SDS011;10556;-33.662;151.094;2023-11-25T10:17:37;7.40;;;5.40;;
20792;SDS011;10556;-33.662;151.094;2023-11-25T10:22:46;6.17;;;5.53;;
20792;SDS011;10556;-33.662;151.094;2023-11-25T10:27:49;8.50;;;6.43;;
20792;SDS011;10556;-33.662;151.094;2023-11-25T10:32:54;11.63;;;5.77;;
20792;SDS011;10556;-33.662;151.094;2023-11-25T10:37:56;7.53;;;4.57;;
20792;SDS011;10556;-33.662;151.094;2023-11-25T10:42:59;5.03;;;4.60;;
20792;SDS011;10556;-33.662;151.094;2023-11-25T10:48:03;3.63;;;3.30;;
20792;SDS011;10556;-33.662;151.094;2023-11-25T10:53:07;5.90;;;5.00;;
20792;SDS011;10556;-33.662;151.094;2023-11-25T10:58:14;3.50;;;3.20;;
20792;SDS011;10556;-33.662;151.094;2023-11-25T11:03:19;5.70;;;5.03;;
20792;SDS011;10556;-33.662;151.094;2023-11-25T11:08:24;8.37;;;6.30;;
20792;SDS011;10556;-33.662;151.094;2023-11-25T11:13:33;5.10;;;4.60;;
20792;SDS011;10556;-33.662;151.094;2023-11-25T11:18:38;5.93;;;5.03;;
20792;SDS011;10556;-33.662;151.094;2023-11-25T11:23:42;5.27;;;4.70;;
20792;SDS011;10556;-33.662;151.094;2023-11-25T11:28:45;5.50;;;4.43;;
20792;SDS011;10556;-33.662;151.094;2023-11-25T11:33:57;3.80;;;3.50;;
20792;SDS011;10556;-33.662;151.094;2023-11-25T11:39:00;3.60;;;3.30;;
20792;SDS011;10556;-33.662;151.094;2023-11-25T11:44:03;3.90;;;3.60;;
20792;SDS011;10556;-33.662;151.094;2023-11-25T11:49:08;2.73;;;2.53;;
20792;SDS011;10556;-33.662;151.094;2023-11-25T11:54:24;3.53;;;3.23;;
20792;SDS011;10556;-33.662;151.094;2023-11-25T12:05:00;4.90;;;4.40;;
20792;SDS011;10556;-33.662;151.094;2023-11-25T12:10:03;3.13;;;2.87;;
20792;SDS011;10556;-33.662;151.094;2023-11-25T12:15:06;3.47;;;3.17;;
20792;SDS011;10556;-33.662;151.094;2023-11-25T12:20:11;4.03;;;3.70;;
20792;SDS011;10556;-33.662;151.094;2023-11-25T12:25:16;3.23;;;3.03;;
20792;SDS011;10556;-33.662;151.094;2023-11-25T12:30:18;3.33;;;3.10;;
20792;SDS011;10556;-33.662;151.094;2023-11-25T12:35:23;14.63;;;6.37;;
20792;SDS011;10556;-33.662;151.094;2023-11-25T12:40:25;4.47;;;3.90;;
20792;SDS011;10556;-33.662;151.094;2023-11-25T12:45:32;16.30;;;5.83;;
20792;SDS011;10556;-33.662;151.094;2023-11-25T12:56:01;2.70;;;2.50;;
20792;SDS011;10556;-33.662;151.094;2023-11-25T13:01:04;3.87;;;3.23;;
20792;SDS011;10556;-33.662;151.094;2023-11-25T13:06:08;3.03;;;2.73;;
20792;SDS011;10556;-33.662;151.094;2023-11-25T13:11:11;3.13;;;2.83;;
20792;SDS011;10556;-33.662;151.094;2023-11-25T13:16:13;2.77;;;2.57;;
20792;SDS011;10556;-33.662;151.094;2023-11-25T13:21:18;2.73;;;2.53;;
20792;SDS011;10556;-33.662;151.094;2023-11-25T13:26:20;1.80;;;1.70;;
20792;SDS011;10556;-33.662;151.094;2023-11-25T13:31:23;2.10;;;1.90;;
20792;SDS011;10556;-33.662;151.094;2023-11-25T13:36:27;2.60;;;2.40;;
20792;SDS011;10556;-33.662;151.094;2023-11-25T13:41:29;2.07;;;1.97;;
20792;SDS011;10556;-33.662;151.094;2023-11-25T13:46:32;1.87;;;1.57;;
20792;SDS011;10556;-33.662;151.094;2023-11-25T13:51:36;2.27;;;2.07;;
20792;SDS011;10556;-33.662;151.094;2023-11-25T13:56:39;1.60;;;1.50;;
20792;SDS011;10556;-33.662;151.094;2023-11-25T14:01:41;1.87;;;1.70;;
20792;SDS011;10556;-33.662;151.094;2023-11-25T14:06:45;2.23;;;1.50;;
20792;SDS011;10556;-33.662;151.094;2023-11-25T14:11:48;3.83;;;1.43;;
20792;SDS011;10556;-33.662;151.094;2023-11-25T14:16:50;1.23;;;1.13;;
20792;SDS011;10556;-33.662;151.094;2023-11-25T14:21:55;0.90;;;0.90;;
20792;SDS011;10556;-33.662;151.094;2023-11-25T14:26:57;0.70;;;0.70;;
20792;SDS011;10556;-33.662;151.094;2023-11-25T14:32:00;0.80;;;0.67;;
20792;SDS011;10556;-33.662;151.094;2023-11-25T14:37:04;0.80;;;0.80;;
20792;SDS011;10556;-33.662;151.094;2023-11-25T14:42:06;1.30;;;1.20;;
20792;SDS011;10556;-33.662;151.094;2023-11-25T14:47:09;3.23;;;1.10;;
20792;SDS011;10556;-33.662;151.094;2023-11-25T14:52:13;2.23;;;0.80;;
20792;SDS011;10556;-33.662;151.094;2023-11-25T14:57:16;0.50;;;0.50;;
20792;SDS011;10556;-33.662;151.094;2023-11-25T15:02:18;1.13;;;0.53;;
20792;SDS011;10556;-33.662;151.094;2023-11-25T15:07:23;1.90;;;0.60;;
20792;SDS011;10556;-33.662;151.094;2023-11-25T15:12:25;0.50;;;0.50;;
20792;SDS011;10556;-33.662;151.094;2023-11-25T15:17:28;0.57;;;0.57;;
20792;SDS011;10556;-33.662;151.094;2023-11-25T15:22:32;0.40;;;0.40;;
20792;SDS011;10556;-33.662;151.094;2023-11-25T15:27:34;0.47;;;0.47;;
20792;SDS011;10556;-33.662;151.094;2023-11-25T15:32:38;0.60;;;0.50;;
20792;SDS011;10556;-33.662;151.094;2023-11-25T15:37:43;0.50;;;0.50;;
20792;SDS011;10556;-33.662;151.094;2023-11-25T15:42:45;0.83;;;0.40;;
20792;SDS011;10556;-33.662;151.094;2023-11-25T15:47:48;0.90;;;0.37;;
20792;SDS011;10556;-33.662;151.094;2023-11-25T15:52:52;0.50;;;0.40;;
20792;SDS011;10556;-33.662;151.094;2023-11-25T15:57:55;2.87;;;0.40;;
20792;SDS011;10556;-33.662;151.094;2023-11-25T16:02:57;0.67;;;0.43;;
20792;SDS011;10556;-33.662;151.094;2023-11-25T16:08:01;0.40;;;0.40;;
20792;SDS011;10556;-33.662;151.094;2023-11-25T16:13:04;2.67;;;0.40;;
20792;SDS011;10556;-33.662;151.094;2023-11-25T16:18:06;2.67;;;0.40;;
20792;SDS011;10556;-33.662;151.094;2023-11-25T16:23:10;0.67;;;0.40;;
20792;SDS011;10556;-33.662;151.094;2023-11-25T16:28:13;0.67;;;0.47;;
20792;SDS011;10556;-33.662;151.094;2023-11-25T16:33:15;0.73;;;0.30;;
20792;SDS011;10556;-33.662;151.094;2023-11-25T16:38:20;0.30;;;0.30;;
20792;SDS011;10556;-33.662;151.094;2023-11-25T16:43:22;0.73;;;0.30;;
20792;SDS011;10556;-33.662;151.094;2023-11-25T16:48:25;0.33;;;0.30;;
20792;SDS011;10556;-33.662;151.094;2023-11-25T16:53:29;0.83;;;0.40;;
20792;SDS011;10556;-33.662;151.094;2023-11-25T16:58:32;0.40;;;0.33;;
20792;SDS011;10556;-33.662;151.094;2023-11-25T17:03:34;0.77;;;0.20;;
20792;SDS011;10556;-33.662;151.094;2023-11-25T17:08:38;0.30;;;0.30;;
20792;SDS011;10556;-33.662;151.094;2023-11-25T17:13:41;0.47;;;0.30;;
20792;SDS011;10556;-33.662;151.094;2023-11-25T17:18:43;0.30;;;0.30;;
20792;SDS011;10556;-33.662;151.094;2023-11-25T17:23:48;0.30;;;0.30;;
20792;SDS011;10556;-33.662;151.094;2023-11-25T17:28:50;0.60;;;0.30;;
20792;SDS011;10556;-33.662;151.094;2023-11-25T17:33:52;0.30;;;0.30;;
20792;SDS011;10556;-33.662;151.094;2023-11-25T17:38:57;0.30;;;0.20;;
20792;SDS011;10556;-33.662;151.094;2023-11-25T17:44:00;0.27;;;0.27;;
20792;SDS011;10556;-33.662;151.094;2023-11-25T17:49:02;0.30;;;0.30;;
20792;SDS011;10556;-33.662;151.094;2023-11-25T17:54:06;0.50;;;0.37;;
20792;SDS011;10556;-33.662;151.094;2023-11-25T17:59:09;0.20;;;0.20;;
20792;SDS011;10556;-33.662;151.094;2023-11-25T18:04:11;0.50;;;0.27;;
20792;SDS011;10556;-33.662;151.094;2023-11-25T18:09:16;2.47;;;0.33;;
20792;SDS011;10556;-33.662;151.094;2023-11-25T18:14:18;0.20;;;0.20;;
20792;SDS011;10556;-33.662;151.094;2023-11-25T18:19:20;1.60;;;0.27;;
20792;SDS011;10556;-33.662;151.094;2023-11-25T18:24:25;0.93;;;0.20;;
20792;SDS011;10556;-33.662;151.094;2023-11-25T18:29:29;0.33;;;0.23;;
20792;SDS011;10556;-33.662;151.094;2023-11-25T18:34:32;0.43;;;0.20;;
20792;SDS011;10556;-33.662;151.094;2023-11-25T18:39:37;0.20;;;0.20;;
20792;SDS011;10556;-33.662;151.094;2023-11-25T18:44:39;0.20;;;0.20;;
20792;SDS011;10556;-33.662;151.094;2023-11-25T18:49:41;3.23;;;0.30;;
20792;SDS011;10556;-33.662;151.094;2023-11-25T18:54:46;0.27;;;0.27;;
20792;SDS011;10556;-33.662;151.094;2023-11-25T18:59:48;0.90;;;0.20;;
20792;SDS011;10556;-33.662;151.094;2023-11-25T19:04:50;3.20;;;0.20;;
20792;SDS011;10556;-33.662;151.094;2023-11-25T19:09:55;0.60;;;0.20;;
20792;SDS011;10556;-33.662;151.094;2023-11-25T19:14:57;0.30;;;0.30;;
20792;SDS011;10556;-33.662;151.094;2023-11-25T19:20:00;0.33;;;0.20;;
20792;SDS011;10556;-33.662;151.094;2023-11-25T19:25:04;0.30;;;0.20;;
20792;SDS011;10556;-33.662;151.094;2023-11-25T19:30:07;0.63;;;0.10;;
20792;SDS011;10556;-33.662;151.094;2023-11-25T19:35:10;0.77;;;0.20;;
20792;SDS011;10556;-33.662;151.094;2023-11-25T19:40:14;0.10;;;0.10;;
20792;SDS011;10556;-33.662;151.094;2023-11-25T19:45:17;0.20;;;0.20;;
20792;SDS011;10556;-33.662;151.094;2023-11-25T19:50:19;0.20;;;0.20;;
20792;SDS011;10556;-33.662;151.094;2023-11-25T19:55:24;2.77;;;0.30;;
20792;SDS011;10556;-33.662;151.094;2023-11-25T20:00:26;0.80;;;0.30;;
20792;SDS011;10556;-33.662;151.094;2023-11-25T20:05:28;0.80;;;0.30;;
20792;SDS011;10556;-33.662;151.094;2023-11-25T20:10:33;1.23;;;0.23;;
20792;SDS011;10556;-33.662;151.094;2023-11-25T20:15:35;0.20;;;0.20;;
20792;SDS011;10556;-33.662;151.094;2023-11-25T20:20:37;0.20;;;0.20;;
20792;SDS011;10556;-33.662;151.094;2023-11-25T20:25:42;0.30;;;0.30;;
20792;SDS011;10556;-33.662;151.094;2023-11-25T20:30:44;0.40;;;0.20;;
20792;SDS011;10556;-33.662;151.094;2023-11-25T20:35:47;0.10;;;0.10;;
20792;SDS011;10556;-33.662;151.094;2023-11-25T20:40:51;0.10;;;0.10;;
20792;SDS011;10556;-33.662;151.094;2023-11-25T20:45:53;0.10;;;0.10;;
20792;SDS011;10556;-33.662;151.094;2023-11-25T20:50:58;0.23;;;0.20;;
20792;SDS011;10556;-33.662;151.094;2023-11-25T20:56:03;0.10;;;0.10;;
20792;SDS011;10556;-33.662;151.094;2023-11-25T21:01:06;0.70;;;0.10;;
20792;SDS011;10556;-33.662;151.094;2023-11-25T21:06:09;0.47;;;0.13;;
20792;SDS011;10556;-33.662;151.094;2023-11-25T21:11:13;0.20;;;0.20;;
20792;SDS011;10556;-33.662;151.094;2023-11-25T21:16:15;0.53;;;0.20;;
20792;SDS011;10556;-33.662;151.094;2023-11-25T21:21:18;0.17;;;0.17;;
20792;SDS011;10556;-33.662;151.094;2023-11-25T21:26:22;0.20;;;0.20;;
20792;SDS011;10556;-33.662;151.094;2023-11-25T21:31:25;0.87;;;0.20;;
20792;SDS011;10556;-33.662;151.094;2023-11-25T21:36:27;0.37;;;0.30;;
20792;SDS011;10556;-33.662;151.094;2023-11-25T21:41:32;0.57;;;0.20;;
20792;SDS011;10556;-33.662;151.094;2023-11-25T21:46:34;2.43;;;0.30;;
20792;SDS011;10556;-33.662;151.094;2023-11-25T21:51:37;0.30;;;0.30;;
20792;SDS011;10556;-33.662;151.094;2023-11-25T21:56:41;0.30;;;0.20;;
20792;SDS011;10556;-33.662;151.094;2023-11-25T22:01:43;0.30;;;0.30;;
20792;SDS011;10556;-33.662;151.094;2023-11-25T22:06:46;0.20;;;0.20;;
20792;SDS011;10556;-33.662;151.094;2023-11-25T22:11:50;0.10;;;0.10;;
20792;SDS011;10556;-33.662;151.094;2023-11-25T22:16:53;0.53;;;0.20;;
20792;SDS011;10556;-33.662;151.094;2023-11-25T22:21:55;0.20;;;0.20;;
20792;SDS011;10556;-33.662;151.094;2023-11-25T22:26:59;0.17;;;0.17;;
20792;SDS011;10556;-33.662;151.094;2023-11-25T22:32:02;0.53;;;0.27;;
20792;SDS011;10556;-33.662;151.094;2023-11-25T22:37:05;0.30;;;0.20;;
20792;SDS011;10556;-33.662;151.094;2023-11-25T22:42:09;0.40;;;0.20;;
20792;SDS011;10556;-33.662;151.094;2023-11-25T22:47:11;0.57;;;0.30;;
20792;SDS011;10556;-33.662;151.094;2023-11-25T22:52:14;0.50;;;0.30;;
20792;SDS011;10556;-33.662;151.094;2023-11-25T22:57:18;0.97;;;0.10;;
20792;SDS011;10556;-33.662;151.094;2023-11-25T23:02:20;2.03;;;0.40;;
20792;SDS011;10556;-33.662;151.094;2023-11-25T23:07:23;0.70;;;0.13;;
20792;SDS011;10556;-33.662;151.094;2023-11-25T23:12:27;0.30;;;0.30;;
20792;SDS011;10556;-33.662;151.094;2023-11-25T23:17:30;1.13;;;0.30;;
20792;SDS011;10556;-33.662;151.094;2023-11-25T23:22:32;0.67;;;0.30;;
20792;SDS011;10556;-33.662;151.094;2023-11-25T23:27:36;0.20;;;0.20;;
20792;SDS011;10556;-33.662;151.094;2023-11-25T23:32:40;1.30;;;0.40;;
20792;SDS011;10556;-33.662;151.094;2023-11-25T23:37:42;1.47;;;0.20;;
20792;SDS011;10556;-33.662;151.094;2023-11-25T23:42:46;0.37;;;0.30;;
20792;SDS011;10556;-33.662;151.094;2023-11-25T23:47:49;2.83;;;0.40;;
20792;SDS011;10556;-33.662;151.094;2023-11-25T23:52:51;0.30;;;0.30;;
20792;SDS011;10556;-33.662;151.094;2023-11-25T23:57:56;1.15;;;0.50;;
